Time;durP1;ratioP1;P1;durP2;ratioP2;P2;SDS_P1;SDS_P2;PMS_P1;PMS_P2;Temp;Humidity;BMP_temperature;BMP_pressure;BME280_temperature;BME280_humidity;BME280_pressure;Samples;Min_cycle;Max_cycle;Signal;HPM_P1;HPM_P2
2023/11/14 00:00:14;;;;;;;0.00;0.00;;;26.20;40.50;;;;;;5012128;28;20659;-46
2023/11/14 00:02:45;;;;;;;0.00;0.00;;;26.20;40.50;;;;;;5012339;28;20212;-45
2023/11/14 00:05:16;;;;;;;0.00;0.00;;;26.20;40.60;;;;;;5007363;28;20559;-44
2023/11/14 00:07:47;;;;;;;0.00;0.00;;;26.20;40.60;;;;;;5012522;28;20705;-44
2023/11/14 00:10:18;;;;;;;0.00;0.00;;;26.20;40.60;;;;;;5017490;28;20201;-52
2023/11/14 00:12:50;;;;;;;0.00;0.00;;;26.20;40.60;;;;;;5012441;28;20215;-56
2023/11/14 00:15:22;;;;;;;0.00;0.00;;;26.20;40.60;;;;;;5012160;28;20676;-52
2023/11/14 00:17:53;;;;;;;0.00;0.00;;;26.20;40.50;;;;;;5012666;28;20223;-50
2023/11/14 00:20:23;;;;;;;0.00;0.00;;;26.20;40.50;;;;;;5012212;28;20212;-44
2023/11/14 00:22:54;;;;;;;0.00;0.00;;;26.20;40.50;;;;;;5011627;28;20223;-52
2023/11/14 00:25:25;;;;;;;0.00;0.00;;;26.20;40.40;;;;;;5012099;28;20200;-47
2023/11/14 00:27:59;;;;;;;0.00;0.00;;;26.30;40.50;;;;;;5010797;28;20217;-54
2023/11/14 00:30:30;;;;;;;0.00;0.00;;;26.30;40.50;;;;;;5011608;28;20208;-54
2023/11/14 00:33:00;;;;;;;0.00;0.00;;;26.30;40.50;;;;;;5030762;28;20275;-54
2023/11/14 00:35:31;;;;;;;0.00;0.00;;;26.30;40.50;;;;;;5017971;28;20200;-44
2023/11/14 00:38:02;;;;;;;0.00;0.00;;;26.40;40.50;;;;;;5011763;28;20224;-50
2023/11/14 00:40:32;;;;;;;0.00;0.00;;;26.40;40.50;;;;;;5018195;28;20227;-48
2023/11/14 00:43:05;;;;;;;0.00;0.00;;;26.40;40.50;;;;;;5011680;28;20193;-53
2023/11/14 00:45:35;;;;;;;0.00;0.00;;;26.40;40.60;;;;;;5011677;28;20188;-43
2023/11/14 00:48:06;;;;;;;0.00;0.00;;;26.40;40.60;;;;;;5011669;28;20228;-55
2023/11/14 00:50:37;;;;;;;0.00;0.00;;;26.50;40.70;;;;;;5011768;28;20655;-50
2023/11/14 00:53:08;;;;;;;0.00;0.00;;;26.50;40.70;;;;;;5011579;28;20204;-55
2023/11/14 00:55:38;;;;;;;0.00;0.00;;;26.50;40.70;;;;;;5011299;28;20204;-56
2023/11/14 00:58:11;;;;;;;0.00;0.00;;;26.50;40.70;;;;;;5011289;28;20225;-55
2023/11/14 01:00:41;;;;;;;0.00;0.00;;;26.50;40.70;;;;;;5011064;28;20231;-47
2023/11/14 01:03:12;;;;;;;0.00;0.00;;;26.50;40.80;;;;;;5012015;28;20196;-51
2023/11/14 01:05:43;;;;;;;0.00;0.00;;;26.50;40.80;;;;;;5011408;28;20716;-46
2023/11/14 01:08:14;;;;;;;0.00;0.00;;;26.50;40.70;;;;;;5016162;28;20209;-57
2023/11/14 01:10:44;;;;;;;0.00;0.00;;;26.50;40.60;;;;;;5011087;28;20239;-56
2023/11/14 01:13:17;;;;;;;0.00;0.00;;;26.60;40.70;;;;;;5011202;28;20212;-53
2023/11/14 01:15:48;;;;;;;0.00;0.00;;;26.60;40.60;;;;;;5011540;28;20189;-48
2023/11/14 01:18:18;;;;;;;0.00;0.00;;;26.60;40.60;;;;;;5011374;28;20221;-53
2023/11/14 01:20:49;;;;;;;0.00;0.00;;;26.60;40.60;;;;;;5011363;28;20587;-55
2023/11/14 01:23:20;;;;;;;0.00;0.00;;;26.70;40.60;;;;;;5010875;28;20222;-56
2023/11/14 01:25:51;;;;;;;0.00;0.00;;;26.70;40.60;;;;;;5010512;28;20189;-56
2023/11/14 01:28:23;;;;;;;0.00;0.00;;;26.70;40.60;;;;;;5010103;28;20216;-55
2023/11/14 01:30:54;;;;;;;0.00;0.00;;;26.70;40.60;;;;;;5010454;28;20197;-50
2023/11/14 01:33:25;;;;;;;0.00;0.00;;;26.70;40.60;;;;;;5010808;28;20193;-45
2023/11/14 01:35:55;;;;;;;0.00;0.00;;;26.70;40.70;;;;;;5007480;28;20676;-48
2023/11/14 01:38:26;;;;;;;0.00;0.00;;;26.70;40.70;;;;;;5010447;28;20216;-49
2023/11/14 01:40:57;;;;;;;0.00;0.00;;;26.70;40.70;;;;;;5011105;28;20606;-54
2023/11/14 01:43:29;;;;;;;0.00;0.00;;;26.80;40.70;;;;;;5011721;28;20676;-52
2023/11/14 01:46:00;;;;;;;0.00;0.00;;;26.80;40.70;;;;;;5010333;28;20669;-54
2023/11/14 01:48:30;;;;;;;0.00;0.00;;;26.80;40.70;;;;;;5010604;28;20223;-49
2023/11/14 01:51:01;;;;;;;0.00;0.00;;;26.70;40.70;;;;;;5011078;28;20189;-51
2023/11/14 01:53:33;;;;;;;0.00;0.00;;;26.80;40.80;;;;;;5015353;28;20280;-56
2023/11/14 01:56:04;;;;;;;0.00;0.00;;;26.80;40.80;;;;;;5014787;28;20199;-46
2023/11/14 01:58:37;;;;;;;0.00;0.00;;;26.80;40.80;;;;;;5014120;28;20613;-50
2023/11/14 02:01:08;;;;;;;0.00;0.00;;;26.80;40.80;;;;;;5021003;28;20225;-57
2023/11/14 02:03:39;;;;;;;0.00;0.00;;;26.80;40.70;;;;;;5013165;28;20207;-53
2023/11/14 02:06:11;;;;;;;0.00;0.00;;;26.90;40.70;;;;;;5014099;28;20207;-58
2023/11/14 02:08:42;;;;;;;0.00;0.00;;;26.90;40.60;;;;;;5014775;28;20565;-47
2023/11/14 02:11:13;;;;;;;0.00;0.00;;;26.90;40.60;;;;;;5015164;28;20204;-54
2023/11/14 02:13:45;;;;;;;0.00;0.00;;;26.90;40.50;;;;;;5014027;28;20666;-46
2023/11/14 02:16:16;;;;;;;0.00;0.00;;;26.90;40.60;;;;;;5014594;28;20223;-53
2023/11/14 02:18:49;;;;;;;0.00;0.00;;;27.00;40.60;;;;;;5030004;28;20212;-51
2023/11/14 02:21:20;;;;;;;0.00;0.00;;;27.00;40.60;;;;;;5026931;28;20255;-52
2023/11/14 02:23:54;;;;;;;0.00;0.00;;;27.00;40.60;;;;;;5014838;28;20203;-51
2023/11/14 02:26:27;;;;;;;0.00;0.00;;;27.00;40.60;;;;;;5014533;28;20220;-56
2023/11/14 02:28:59;;;;;;;0.00;0.00;;;27.00;40.60;;;;;;5014329;28;20204;-56
2023/11/14 02:31:31;;;;;;;0.00;0.00;;;27.00;40.60;;;;;;5020883;28;20231;-53
2023/11/14 02:34:02;;;;;;;0.00;0.00;;;27.00;40.60;;;;;;5032707;28;20196;-54
2023/11/14 02:36:33;;;;;;;0.00;0.00;;;27.00;40.70;;;;;;5017682;28;20196;-46
2023/11/14 02:39:04;;;;;;;0.00;0.00;;;27.00;40.70;;;;;;5033941;28;20226;-51
2023/11/14 02:41:37;;;;;;;0.00;0.00;;;27.00;40.60;;;;;;5023695;28;20792;-56
2023/11/14 02:44:08;;;;;;;0.00;0.00;;;27.00;40.30;;;;;;5014049;28;20193;-51
2023/11/14 02:46:39;;;;;;;0.00;0.00;;;27.10;40.30;;;;;;5014283;28;20192;-49
2023/11/14 02:49:35;;;;;;;0.00;0.00;;;27.10;40.20;;;;;;5013685;28;20288;-55
2023/11/14 02:52:06;;;;;;;0.00;0.00;;;27.10;40.20;;;;;;5011967;28;20211;-53
2023/11/14 02:54:37;;;;;;;0.00;0.00;;;27.10;40.10;;;;;;5013787;28;20197;-49
2023/11/14 02:57:12;;;;;;;0.00;0.00;;;27.20;40.10;;;;;;5013099;28;20229;-56
2023/11/14 02:59:42;;;;;;;0.00;0.00;;;27.20;40.10;;;;;;5013836;28;20197;-52
2023/11/14 03:02:13;;;;;;;0.00;0.00;;;27.20;40.00;;;;;;5012665;28;20220;-49
2023/11/14 03:04:44;;;;;;;0.00;0.00;;;27.30;40.00;;;;;;5010987;28;20200;-55
2023/11/14 03:07:14;;;;;;;0.00;0.00;;;27.30;40.10;;;;;;5011786;28;20220;-56
2023/11/14 03:09:46;;;;;;;0.00;0.00;;;27.30;40.10;;;;;;5013385;28;20189;-53
2023/11/14 03:12:20;;;;;;;0.00;0.00;;;27.30;40.20;;;;;;5014320;28;20204;-50
2023/11/14 03:14:50;;;;;;;0.00;0.00;;;27.30;40.20;;;;;;5013154;28;20201;-49
2023/11/14 03:17:21;;;;;;;0.00;0.00;;;27.30;40.10;;;;;;5012538;28;20601;-47
2023/11/14 03:19:52;;;;;;;0.00;0.00;;;27.30;40.20;;;;;;5012214;28;20200;-55
2023/11/14 03:22:23;;;;;;;0.00;0.00;;;27.40;40.20;;;;;;5013314;28;20596;-50
2023/11/14 03:24:54;;;;;;;0.00;0.00;;;27.40;40.10;;;;;;4999639;28;20251;-54
2023/11/14 03:27:26;;;;;;;0.00;0.00;;;27.40;40.10;;;;;;5013749;28;20649;-50
2023/11/14 03:29:57;;;;;;;0.00;0.00;;;27.40;40.10;;;;;;5013002;28;20196;-54
2023/11/14 03:32:30;;;;;;;0.00;0.00;;;27.40;39.80;;;;;;5012084;28;20537;-48
2023/11/14 03:35:00;;;;;;;0.00;0.00;;;27.40;39.70;;;;;;5012703;28;20421;-50
2023/11/14 03:37:31;;;;;;;0.00;0.00;;;27.50;39.70;;;;;;5012337;28;20685;-54
2023/11/14 03:40:02;;;;;;;0.00;0.00;;;27.50;39.60;;;;;;5013012;28;20645;-48
2023/11/14 03:42:35;;;;;;;0.00;0.00;;;27.50;39.50;;;;;;5012924;28;20239;-43
2023/11/14 03:45:06;;;;;;;0.00;0.00;;;27.50;39.50;;;;;;5012976;28;20207;-51
2023/11/14 03:47:37;;;;;;;0.00;0.00;;;27.50;39.50;;;;;;5012603;28;20220;-47
2023/11/14 03:50:09;;;;;;;0.00;0.00;;;27.60;39.60;;;;;;5013594;28;20197;-46
2023/11/14 03:52:40;;;;;;;0.00;0.00;;;27.60;40.20;;;;;;5028995;28;20192;-52
2023/11/14 03:55:11;;;;;;;0.00;0.00;;;27.60;39.60;;;;;;5027583;28;20189;-45
2023/11/14 03:57:43;;;;;;;0.00;0.00;;;27.60;39.70;;;;;;5012851;28;20228;-49
2023/11/14 04:00:15;;;;;;;0.00;0.00;;;27.60;39.60;;;;;;5011090;28;20204;-52
2023/11/14 04:02:45;;;;;;;0.00;0.00;;;27.60;39.70;;;;;;5012654;28;20225;-54
2023/11/14 04:05:16;;;;;;;0.00;0.00;;;27.60;39.70;;;;;;5012319;28;20193;-53
2023/11/14 04:07:46;;;;;;;0.00;0.00;;;27.60;40.00;;;;;;5012296;28;20565;-51
2023/11/14 04:10:17;;;;;;;0.00;0.00;;;27.60;39.70;;;;;;5012645;28;20197;-49
2023/11/14 04:12:50;;;;;;;0.00;0.00;;;27.60;39.70;;;;;;5011898;28;20664;-56
2023/11/14 04:15:20;;;;;;;0.00;0.00;;;27.60;39.60;;;;;;5011150;28;20189;-52
2023/11/14 04:17:51;;;;;;;0.00;0.00;;;27.70;39.10;;;;;;5012475;28;20221;-52
2023/11/14 04:20:22;;;;;;;0.00;0.00;;;27.60;38.90;;;;;;5012344;28;20218;-56
2023/11/14 04:22:52;;;;;;;0.00;0.00;;;27.60;39.00;;;;;;5012609;28;20228;-54
2023/11/14 04:25:23;;;;;;;0.00;0.00;;;27.60;39.20;;;;;;5026444;28;20205;-57
2023/11/14 04:27:56;;;;;;;0.00;0.00;;;27.60;39.30;;;;;;5016139;28;20217;-52
2023/11/14 04:30:26;;;;;;;0.00;0.00;;;27.60;39.40;;;;;;5026823;28;20185;-55
2023/11/14 04:32:57;;;;;;;0.00;0.00;;;27.60;39.30;;;;;;5011343;28;20201;-48
2023/11/14 04:35:28;;;;;;;0.00;0.00;;;27.60;39.40;;;;;;5012321;28;20193;-54
2023/11/14 04:37:58;;;;;;;0.00;0.00;;;27.60;39.40;;;;;;5011340;28;20225;-56
2023/11/14 04:40:31;;;;;;;0.00;0.00;;;27.60;39.40;;;;;;5011527;28;20231;-49
2023/11/14 04:43:03;;;;;;;0.00;0.00;;;27.60;39.40;;;;;;5011368;28;20263;-50
2023/11/14 04:45:34;;;;;;;0.00;0.00;;;27.60;39.30;;;;;;5011279;28;20554;-55
2023/11/14 04:48:04;;;;;;;0.00;0.00;;;27.60;39.10;;;;;;5011264;28;20228;-48
2023/11/14 04:50:35;;;;;;;0.00;0.00;;;27.50;38.90;;;;;;5011841;28;20192;-53
2023/11/14 04:53:06;;;;;;;0.00;0.00;;;27.50;38.80;;;;;;5011367;28;20193;-55
2023/11/14 04:55:36;;;;;;;0.00;0.00;;;27.50;38.60;;;;;;5011204;28;20196;-56
2023/11/14 04:58:09;;;;;;;0.00;0.00;;;27.50;38.60;;;;;;5011870;28;20233;-56
2023/11/14 05:00:40;;;;;;;0.00;0.00;;;27.50;38.60;;;;;;5004212;28;20231;-53
2023/11/14 05:03:10;;;;;;;0.00;0.00;;;27.50;38.50;;;;;;5011259;28;20273;-55
2023/11/14 05:05:41;;;;;;;0.00;0.00;;;27.50;38.60;;;;;;5011121;28;20192;-56
2023/11/14 05:08:11;;;;;;;0.00;0.00;;;27.40;38.50;;;;;;5010862;28;20216;-48
2023/11/14 05:10:42;;;;;;;0.00;0.00;;;27.40;38.50;;;;;;5011637;28;20196;-56
2023/11/14 05:13:15;;;;;;;0.00;0.00;;;27.40;38.70;;;;;;5010825;28;20239;-48
2023/11/14 05:15:46;;;;;;;0.00;0.00;;;27.50;38.80;;;;;;5010770;28;20185;-48
2023/11/14 05:18:17;;;;;;;0.00;0.00;;;27.40;38.80;;;;;;5010684;28;20228;-50
2023/11/14 05:20:47;;;;;;;0.00;0.00;;;27.40;38.80;;;;;;5010371;28;20199;-56
2023/11/14 05:23:18;;;;;;;0.00;0.00;;;27.40;38.90;;;;;;5010655;28;20227;-53
2023/11/14 05:25:48;;;;;;;0.00;0.00;;;27.40;38.90;;;;;;5010510;28;20205;-55
2023/11/14 05:28:22;;;;;;;0.00;0.00;;;27.40;39.00;;;;;;5011485;28;20685;-55
2023/11/14 05:30:52;;;;;;;0.00;0.00;;;27.40;39.00;;;;;;5010501;28;20199;-57
2023/11/14 05:33:23;;;;;;;0.00;0.00;;;27.40;39.10;;;;;;5011027;28;20197;-54
2023/11/14 05:35:54;;;;;;;0.00;0.00;;;27.40;39.10;;;;;;5010227;28;20198;-54
2023/11/14 05:38:24;;;;;;;0.00;0.00;;;27.40;39.10;;;;;;5011246;28;20216;-54
2023/11/14 05:40:56;;;;;;;0.00;0.00;;;27.40;39.20;;;;;;5010737;28;20205;-54
2023/11/14 05:43:29;;;;;;;0.00;0.00;;;27.40;39.20;;;;;;5011105;28;20334;-50
2023/11/14 05:46:01;;;;;;;0.00;0.00;;;27.40;39.20;;;;;;5010207;28;20200;-53
2023/11/14 05:48:31;;;;;;;0.00;0.00;;;27.40;39.10;;;;;;5015511;28;20208;-57
2023/11/14 05:51:03;;;;;;;0.00;0.00;;;27.40;39.10;;;;;;5025434;28;20196;-57
2023/11/14 05:53:34;;;;;;;0.00;0.00;;;27.40;39.10;;;;;;5010481;28;20197;-46
2023/11/14 05:56:05;;;;;;;0.00;0.00;;;27.40;39.10;;;;;;5010865;28;20189;-53
2023/11/14 05:58:37;;;;;;;0.00;0.00;;;27.30;39.00;;;;;;5010499;28;20316;-44
2023/11/14 06:01:10;;;;;;;0.00;0.00;;;27.30;39.30;;;;;;5010095;28;20200;-56
2023/11/14 06:03:40;;;;;;;0.00;0.00;;;27.30;39.10;;;;;;5011146;28;20759;-57
2023/11/14 06:06:11;;;;;;;0.00;0.00;;;27.30;39.20;;;;;;5010779;28;20200;-44
2023/11/14 06:08:42;;;;;;;0.00;0.00;;;27.30;39.20;;;;;;5010387;28;20732;-46
2023/11/14 06:11:13;;;;;;;0.00;0.00;;;27.30;39.30;;;;;;5010956;28;20204;-48
2023/11/14 06:13:47;;;;;;;0.00;0.00;;;27.30;39.30;;;;;;5010440;28;20200;-56
2023/11/14 06:16:18;;;;;;;0.00;0.00;;;27.30;39.30;;;;;;5010293;28;20196;-56
2023/11/14 06:18:48;;;;;;;0.00;0.00;;;27.30;39.30;;;;;;5010724;28;20227;-54
2023/11/14 06:21:19;;;;;;;0.00;0.00;;;27.30;39.30;;;;;;5017552;28;20188;-44
2023/11/14 06:23:50;;;;;;;0.00;0.00;;;27.30;39.30;;;;;;5030420;28;20227;-56
2023/11/14 06:26:20;;;;;;;0.00;0.00;;;27.30;39.30;;;;;;5026370;28;20228;-52
2023/11/14 06:28:53;;;;;;;0.00;0.00;;;27.30;39.20;;;;;;5030414;28;20223;-55
2023/11/14 06:31:26;;;;;;;0.00;0.00;;;27.20;39.20;;;;;;5023602;28;20189;-52
2023/11/14 06:33:59;;;;;;;0.00;0.00;;;27.20;39.10;;;;;;5011282;28;20307;-56
2023/11/14 06:36:29;;;;;;;0.00;0.00;;;27.20;39.10;;;;;;5009976;28;20203;-55
2023/11/14 06:39:00;;;;;;;0.00;0.00;;;27.20;39.10;;;;;;5013744;28;20207;-56
2023/11/14 06:41:31;;;;;;;0.00;0.00;;;27.20;39.20;;;;;;5013765;28;20193;-55
2023/11/14 06:44:03;;;;;;;0.00;0.00;;;27.20;39.20;;;;;;5014720;28;20232;-53
2023/11/14 06:46:34;;;;;;;0.00;0.00;;;27.20;39.80;;;;;;5014075;28;20193;-56
2023/11/14 06:49:04;;;;;;;0.00;0.00;;;27.20;39.30;;;;;;5014477;28;20210;-54
2023/11/14 06:51:35;;;;;;;0.00;0.00;;;27.10;39.20;;;;;;5014009;28;20196;-52
2023/11/14 06:54:06;;;;;;;0.00;0.00;;;27.10;39.20;;;;;;5014018;28;20653;-56
2023/11/14 06:56:36;;;;;;;0.00;0.00;;;27.10;39.30;;;;;;5013624;28;20208;-54
2023/11/14 06:59:09;;;;;;;0.00;0.00;;;27.10;39.30;;;;;;5014044;28;20456;-56
2023/11/14 07:01:40;;;;;;;0.00;0.00;;;27.10;39.30;;;;;;5013211;28;20216;-57
2023/11/14 07:04:11;;;;;;;0.00;0.00;;;27.10;39.30;;;;;;5013283;28;20390;-55
2023/11/14 07:06:42;;;;;;;0.00;0.00;;;27.10;39.30;;;;;;5013940;28;20232;-54
2023/11/14 07:09:15;;;;;;;0.00;0.00;;;27.10;39.30;;;;;;5013811;28;20201;-56
2023/11/14 07:11:47;;;;;;;0.00;0.00;;;27.10;39.20;;;;;;5014340;28;20197;-55
2023/11/14 07:14:21;;;;;;;0.00;0.00;;;27.10;39.20;;;;;;5014065;28;20291;-58
2023/11/14 07:16:52;;;;;;;0.00;0.00;;;27.10;39.20;;;;;;5011911;28;20224;-48
2023/11/14 07:19:22;;;;;;;0.00;0.00;;;27.10;39.20;;;;;;5013477;28;20276;-54
2023/11/14 07:21:53;;;;;;;0.00;0.00;;;27.10;39.20;;;;;;5013477;28;20243;-55
2023/11/14 07:24:24;;;;;;;0.00;0.00;;;27.00;39.10;;;;;;5013451;28;20239;-56
2023/11/14 07:26:54;;;;;;;0.00;0.00;;;27.00;39.10;;;;;;5013943;28;20217;-55
2023/11/14 07:29:27;;;;;;;0.00;0.00;;;27.00;39.10;;;;;;5013249;28;20197;-54
2023/11/14 07:31:57;;;;;;;0.00;0.00;;;27.00;39.10;;;;;;5010164;28;20630;-56
2023/11/14 07:34:28;;;;;;;0.00;0.00;;;27.00;39.10;;;;;;5012930;28;20193;-57
2023/11/14 07:36:59;;;;;;;0.00;0.00;;;26.90;39.10;;;;;;5010576;28;20220;-57
2023/11/14 07:39:29;;;;;;;0.00;0.00;;;27.00;39.20;;;;;;5013094;28;20208;-55
2023/11/14 07:42:00;;;;;;;0.00;0.00;;;26.90;39.10;;;;;;5013011;28;20589;-56
2023/11/14 07:44:32;;;;;;;0.00;0.00;;;26.90;39.20;;;;;;5012976;28;20224;-56
2023/11/14 07:47:03;;;;;;;0.00;0.00;;;26.90;39.20;;;;;;5012566;28;20223;-53
2023/11/14 07:49:34;;;;;;;0.00;0.00;;;26.80;39.10;;;;;;5012538;28;20680;-56
2023/11/14 07:52:04;;;;;;;0.00;0.00;;;26.80;39.10;;;;;;5013344;28;20197;-52
2023/11/14 07:54:35;;;;;;;0.00;0.00;;;26.80;39.10;;;;;;5016190;28;20205;-55
2023/11/14 07:57:06;;;;;;;0.00;0.00;;;26.80;39.10;;;;;;4993045;28;20701;-54
2023/11/14 07:59:38;;;;;;;0.00;0.00;;;26.80;39.10;;;;;;4992646;28;20946;-56
2023/11/14 08:02:09;;;;;;;0.00;0.00;;;26.80;39.20;;;;;;4993469;28;20574;-55
2023/11/14 08:04:40;;;;;;;0.00;0.00;;;26.80;39.10;;;;;;4993420;28;20237;-55
2023/11/14 08:07:11;;;;;;;0.00;0.00;;;26.70;39.70;;;;;;4993071;28;20221;-49
2023/11/14 08:09:41;;;;;;;0.00;0.00;;;26.70;39.10;;;;;;4993234;28;20206;-47
2023/11/14 08:12:12;;;;;;;0.00;0.00;;;26.70;39.10;;;;;;5007973;28;20197;-49
2023/11/14 08:14:45;;;;;;;0.00;0.00;;;26.70;39.10;;;;;;5012362;28;20244;-57
2023/11/14 08:17:17;;;;;;;0.00;0.00;;;26.70;39.10;;;;;;5012970;28;20308;-48
2023/11/14 08:19:48;;;;;;;0.00;0.00;;;26.60;39.10;;;;;;5018994;28;20192;-52
2023/11/14 08:22:19;;;;;;;0.00;0.00;;;26.60;39.10;;;;;;5032335;28;20242;-52
2023/11/14 08:24:50;;;;;;;0.00;0.00;;;26.60;39.10;;;;;;5031512;28;20220;-52
2023/11/14 08:27:20;;;;;;;0.00;0.00;;;26.60;39.10;;;;;;5031988;28;20251;-48
2023/11/14 08:29:53;;;;;;;0.00;0.00;;;26.50;39.10;;;;;;5031333;28;20192;-52
2023/11/14 08:32:24;;;;;;;0.00;0.00;;;26.50;39.10;;;;;;5031697;28;20198;-54
2023/11/14 08:34:54;;;;;;;0.00;0.00;;;26.50;39.10;;;;;;5031723;28;20207;-51
2023/11/14 08:37:25;;;;;;;0.00;0.00;;;26.50;39.20;;;;;;5032018;28;20239;-52
2023/11/14 08:39:55;;;;;;;0.00;0.00;;;26.50;39.20;;;;;;5032331;28;20196;-55
2023/11/14 08:42:26;;;;;;;0.00;0.00;;;26.50;39.20;;;;;;5015016;28;20204;-49
2023/11/14 08:44:59;;;;;;;0.00;0.00;;;26.50;39.20;;;;;;5010831;28;20248;-57
2023/11/14 08:47:29;;;;;;;0.00;0.00;;;26.40;39.20;;;;;;5011881;28;20224;-52
2023/11/14 08:50:00;;;;;;;0.00;0.00;;;26.40;39.20;;;;;;5009159;28;20482;-50
2023/11/14 08:52:31;;;;;;;0.00;0.00;;;26.40;39.20;;;;;;5011707;28;20216;-49
2023/11/14 08:55:01;;;;;;;0.00;0.00;;;26.40;39.20;;;;;;5005365;28;20199;-56
2023/11/14 08:57:32;;;;;;;0.00;0.00;;;26.40;39.30;;;;;;4991478;28;20225;-55
2023/11/14 09:00:08;;;;;;;0.00;0.00;;;26.30;39.20;;;;;;5003998;28;20189;-49
2023/11/14 09:02:39;;;;;;;0.00;0.00;;;26.30;39.30;;;;;;5011648;28;20232;-49
2023/11/14 09:05:11;;;;;;;0.00;0.00;;;26.30;39.20;;;;;;5019048;28;20203;-54
2023/11/14 09:07:42;;;;;;;0.00;0.00;;;26.30;39.30;;;;;;5020075;28;20244;-51
2023/11/14 09:10:13;;;;;;;0.00;0.00;;;26.20;39.20;;;;;;5012104;28;20197;-49
2023/11/14 09:12:43;;;;;;;0.00;0.00;;;26.20;39.20;;;;;;5011184;28;20197;-56
2023/11/14 09:15:16;;;;;;;0.00;0.00;;;26.20;39.20;;;;;;5010887;28;20204;-57
2023/11/14 09:17:47;;;;;;;0.00;0.00;;;26.20;39.20;;;;;;5011120;28;20217;-54
2023/11/14 09:20:18;;;;;;;0.00;0.00;;;26.20;39.20;;;;;;5011176;28;20200;-58
2023/11/14 09:22:48;;;;;;;0.00;0.00;;;26.10;39.20;;;;;;5011383;28;20243;-54
2023/11/14 09:25:19;;;;;;;0.00;0.00;;;26.10;39.20;;;;;;5011037;28;20196;-54
2023/11/14 09:27:50;;;;;;;0.00;0.00;;;26.10;39.20;;;;;;5011388;28;20688;-51
2023/11/14 09:30:23;;;;;;;0.00;0.00;;;26.10;39.20;;;;;;5010148;28;20209;-51
2023/11/14 09:32:53;;;;;;;0.00;0.00;;;26.10;39.20;;;;;;5011649;28;20235;-50
2023/11/14 09:35:24;;;;;;;0.00;0.00;;;26.00;39.20;;;;;;5011040;28;20193;-56
2023/11/14 09:37:55;;;;;;;0.00;0.00;;;26.00;39.20;;;;;;5010396;28;20224;-56
2023/11/14 09:40:26;;;;;;;0.00;0.00;;;26.00;39.80;;;;;;5010399;28;20199;-52
2023/11/14 09:42:57;;;;;;;0.00;0.00;;;26.00;39.20;;;;;;5010975;28;20331;-54
2023/11/14 09:45:33;;;;;;;0.00;0.00;;;26.00;39.20;;;;;;5013133;28;20192;-54
2023/11/14 09:48:08;;;;;;;0.00;0.00;;;26.00;39.10;;;;;;5010319;28;20255;-53
2023/11/14 09:50:42;;;;;;;0.00;0.00;;;25.90;39.00;;;;;;5010231;28;20227;-57
2023/11/14 09:53:13;;;;;;;0.00;0.00;;;25.90;39.10;;;;;;5010257;28;20200;-42
2023/11/14 09:55:46;;;;;;;0.00;0.00;;;25.90;39.10;;;;;;5009653;28;20193;-53
2023/11/14 09:58:17;;;;;;;0.00;0.00;;;25.90;39.10;;;;;;5010605;28;20268;-56
2023/11/14 10:00:49;;;;;;;0.00;0.00;;;25.80;39.00;;;;;;5014422;28;20188;-57
2023/11/14 10:03:21;;;;;;;0.00;0.00;;;25.80;39.00;;;;;;5030345;28;20227;-56
2023/11/14 10:05:52;;;;;;;0.00;0.00;;;25.80;39.00;;;;;;5014256;28;20232;-57
2023/11/14 10:08:23;;;;;;;0.00;0.00;;;25.70;38.90;;;;;;5010321;28;20224;-56
2023/11/14 10:11:10;;;;;;;0.00;0.00;;;25.70;38.90;;;;;;5011354;28;20320;-51
2023/11/14 10:13:41;;;;;;;0.00;0.00;;;25.70;38.80;;;;;;5014758;28;20239;-55
2023/11/14 10:16:24;;;;;;;0.00;0.00;;;25.70;38.80;;;;;;5014400;28;20189;-54
2023/11/14 10:18:55;;;;;;;0.00;0.00;;;25.60;38.70;;;;;;5015390;28;20211;-55
2023/11/14 10:21:30;;;;;;;0.00;0.00;;;25.60;38.80;;;;;;5014757;28;20204;-56
2023/11/14 10:24:02;;;;;;;0.00;0.00;;;25.60;38.80;;;;;;5013161;28;20224;-57
2023/11/14 10:26:34;;;;;;;0.00;0.00;;;25.60;38.80;;;;;;5014383;28;20192;-56
2023/11/14 10:29:04;;;;;;;0.00;0.00;;;25.60;38.80;;;;;;5016785;28;20257;-56
2023/11/14 10:31:41;;;;;;;0.00;0.00;;;25.50;38.70;;;;;;5019581;28;20197;-56
2023/11/14 10:34:27;;;;;;;0.00;0.00;;;25.50;38.70;;;;;;5015743;28;20184;-57
2023/11/14 10:36:59;;;;;;;0.00;0.00;;;25.50;38.60;;;;;;5018018;28;20244;-53
2023/11/14 10:39:31;;;;;;;0.00;0.00;;;25.40;38.60;;;;;;5023825;28;20193;-53
2023/11/14 10:42:12;;;;;;;0.00;0.00;;;25.40;38.60;;;;;;5022885;28;20201;-57
2023/11/14 10:44:58;;;;;;;0.00;0.00;;;25.40;38.60;;;;;;5021318;28;20217;-54
2023/11/14 10:47:43;;;;;;;0.00;0.00;;;25.30;38.50;;;;;;5018963;28;21271;-57
2023/11/14 10:50:28;;;;;;;0.00;0.00;;;25.30;38.50;;;;;;5023572;28;20188;-58
2023/11/14 10:53:00;;;;;;;0.08;0.08;;;25.30;38.40;;;;;;5022093;28;20590;-59
2023/11/14 10:55:32;;;;;;;0.00;0.00;;;25.30;38.40;;;;;;5017138;28;20267;-49
2023/11/14 10:58:04;;;;;;;0.00;0.00;;;25.30;38.40;;;;;;5013963;28;20221;-48
2023/11/14 11:00:34;;;;;;;0.00;0.00;;;25.20;38.30;;;;;;5011537;28;20601;-57
2023/11/14 11:03:07;;;;;;;0.00;0.00;;;25.20;38.30;;;;;;5013334;28;20228;-59
2023/11/14 11:05:38;;;;;;;0.00;0.00;;;25.20;38.30;;;;;;5013379;28;20221;-45
2023/11/14 11:08:12;;;;;;;0.00;0.00;;;25.20;38.30;;;;;;5011018;28;20218;-52
2023/11/14 11:10:44;;;;;;;0.00;0.00;;;25.10;38.30;;;;;;5014124;28;20280;-57
2023/11/14 11:13:20;;;;;;;0.00;0.00;;;25.10;38.30;;;;;;5011151;28;20193;-48
2023/11/14 11:15:54;;;;;;;0.00;0.00;;;25.10;38.40;;;;;;5011034;28;20195;-43
2023/11/14 11:18:35;;;;;;;0.00;0.00;;;25.10;38.50;;;;;;5013456;28;20212;-44
2023/11/14 11:21:13;;;;;;;0.00;0.00;;;25.10;38.40;;;;;;5013702;28;20193;-51
2023/11/14 11:24:14;;;;;;;0.00;0.00;;;25.00;38.30;;;;;;5012943;28;20243;-46
2023/11/14 11:27:15;;;;;;;0.00;0.00;;;25.00;38.40;;;;;;5012798;28;20221;-54
2023/11/14 11:29:56;;;;;;;0.00;0.00;;;25.00;38.40;;;;;;5007052;28;20188;-54
2023/11/14 11:32:32;;;;;;;0.00;0.00;;;25.00;38.40;;;;;;5013086;28;20216;-53
2023/11/14 11:35:38;;;;;;;0.00;0.00;;;25.00;38.40;;;;;;5013032;28;20552;-56
2023/11/14 11:38:16;;;;;;;0.00;0.00;;;24.90;38.40;;;;;;5010497;28;20208;-55
2023/11/14 11:41:12;;;;;;;0.00;0.00;;;24.90;38.50;;;;;;5013200;28;20195;-56
2023/11/14 11:43:46;;;;;;;0.00;0.00;;;24.80;38.40;;;;;;5011081;28;20301;-55
2023/11/14 11:46:41;;;;;;;0.00;0.00;;;24.90;38.50;;;;;;5012978;28;20224;-57
2023/11/14 11:49:33;;;;;;;0.10;0.10;;;24.80;38.50;;;;;;5012910;28;20197;-54
2023/11/14 11:52:17;;;;;;;0.00;0.00;;;24.80;38.50;;;;;;5013143;28;20252;-56
2023/11/14 11:55:12;;;;;;;0.00;0.00;;;24.70;38.50;;;;;;5013132;28;20193;-55
2023/11/14 11:57:43;;;;;;;0.00;0.00;;;24.70;38.60;;;;;;5013125;28;20689;-54
2023/11/14 12:00:26;;;;;;;0.00;0.00;;;24.70;38.60;;;;;;5012638;28;20197;-55
2023/11/14 12:02:57;;;;;;;0.05;0.05;;;24.70;38.70;;;;;;5026493;28;20203;-58
2023/11/14 12:05:29;;;;;;;0.00;0.00;;;24.70;38.70;;;;;;5033178;28;20231;-57
2023/11/14 12:08:00;;;;;;;0.00;0.00;;;24.60;38.70;;;;;;5033094;28;20224;-57
2023/11/14 12:10:33;;;;;;;0.00;0.00;;;24.60;38.70;;;;;;5032562;28;20204;-57
2023/11/14 12:13:04;;;;;;;0.00;0.00;;;24.60;38.70;;;;;;5013047;28;20201;-57
2023/11/14 12:15:35;;;;;;;0.00;0.00;;;24.60;38.80;;;;;;5013448;28;20267;-57
2023/11/14 12:18:06;;;;;;;0.00;0.00;;;24.60;38.90;;;;;;5012860;28;20293;-59
2023/11/14 12:20:36;;;;;;;0.00;0.00;;;24.50;38.80;;;;;;5012806;28;20197;-56
2023/11/14 12:23:07;;;;;;;0.00;0.00;;;24.50;38.90;;;;;;5012770;28;20649;-57
2023/11/14 12:25:40;;;;;;;0.00;0.00;;;24.50;38.90;;;;;;5026953;28;20230;-56
2023/11/14 12:28:10;;;;;;;0.00;0.00;;;24.50;38.90;;;;;;5032607;28;20220;-57
2023/11/14 12:30:41;;;;;;;0.00;0.00;;;24.50;39.00;;;;;;5032470;28;20195;-58
2023/11/14 12:33:16;;;;;;;0.00;0.00;;;24.50;39.00;;;;;;5032156;28;20196;-58
2023/11/14 12:35:50;;;;;;;0.00;0.00;;;24.50;39.00;;;;;;5032316;28;20219;-58
2023/11/14 12:38:34;;;;;;;0.00;0.00;;;24.40;39.00;;;;;;5032480;28;20219;-59
2023/11/14 12:41:29;;;;;;;0.00;0.00;;;24.40;39.00;;;;;;5026808;28;20196;-59
2023/11/14 12:44:00;;;;;;;0.00;0.00;;;24.40;39.10;;;;;;5012199;28;20200;-57
2023/11/14 12:46:32;;;;;;;0.00;0.00;;;24.40;39.10;;;;;;5012293;28;20390;-59
2023/11/14 12:49:14;;;;;;;0.10;0.10;;;24.30;39.10;;;;;;5012697;28;20667;-57
2023/11/14 12:51:46;;;;;;;0.10;0.10;;;24.30;39.20;;;;;;5012488;28;20292;-57
2023/11/14 12:54:18;;;;;;;0.00;0.00;;;24.30;39.20;;;;;;5012348;28;20259;-57
2023/11/14 12:56:52;;;;;;;0.00;0.00;;;24.30;39.30;;;;;;5011903;28;20248;-57
2023/11/14 12:59:23;;;;;;;0.00;0.00;;;24.30;39.30;;;;;;5011793;28;20193;-57
2023/11/14 13:01:55;;;;;;;0.00;0.00;;;24.30;39.40;;;;;;5011710;28;20244;-57
2023/11/14 13:04:26;;;;;;;0.00;0.00;;;24.20;39.30;;;;;;5011679;28;20219;-57
2023/11/14 13:06:59;;;;;;;0.00;0.00;;;24.20;39.40;;;;;;5011839;28;20643;-57
2023/11/14 13:09:30;;;;;;;0.00;0.00;;;24.20;39.40;;;;;;5009674;28;20200;-58
2023/11/14 13:12:03;;;;;;;0.00;0.00;;;24.20;39.40;;;;;;5012448;28;20237;-57
2023/11/14 13:14:34;;;;;;;0.00;0.00;;;24.20;39.40;;;;;;5011696;28;20193;-56